sensor_id;sensor_type;location;lat;lon;timestamp;P1;durP1;ratioP1;P2;durP2;ratioP2
8584;SDS011;7180;52.742;11.420;2023-01-16T00:01:54;7.70;;;7.30;;
8584;SDS011;7180;52.742;11.420;2023-01-16T00:04:21;8.50;;;8.10;;
8584;SDS011;7180;52.742;11.420;2023-01-16T00:06:47;8.47;;;7.97;;
8584;SDS011;7180;52.742;11.420;2023-01-16T00:09:12;7.97;;;7.50;;
8584;SDS011;7180;52.742;11.420;2023-01-16T00:11:38;8.10;;;7.70;;
8584;SDS011;7180;52.742;11.420;2023-01-16T00:14:03;7.90;;;7.40;;
8584;SDS011;7180;52.742;11.420;2023-01-16T00:16:28;7.93;;;7.63;;
8584;SDS011;7180;52.742;11.420;2023-01-16T00:18:54;8.20;;;7.80;;
8584;SDS011;7180;52.742;11.420;2023-01-16T00:21:20;9.13;;;8.60;;
8584;SDS011;7180;52.742;11.420;2023-01-16T00:23:49;8.60;;;8.20;;
8584;SDS011;7180;52.742;11.420;2023-01-16T00:26:14;8.70;;;8.10;;
8584;SDS011;7180;52.742;11.420;2023-01-16T00:28:40;8.57;;;8.17;;
8584;SDS011;7180;52.742;11.420;2023-01-16T00:31:05;8.37;;;7.87;;
8584;SDS011;7180;52.742;11.420;2023-01-16T00:33:31;8.47;;;8.00;;
8584;SDS011;7180;52.742;11.420;2023-01-16T00:35:57;7.93;;;7.53;;
8584;SDS011;7180;52.742;11.420;2023-01-16T00:38:23;8.70;;;8.30;;
8584;SDS011;7180;52.742;11.420;2023-01-16T00:40:48;8.80;;;8.40;;
8584;SDS011;7180;52.742;11.420;2023-01-16T00:43:13;8.57;;;8.07;;
8584;SDS011;7180;52.742;11.420;2023-01-16T00:45:39;8.17;;;7.77;;
8584;SDS011;7180;52.742;11.420;2023-01-16T00:48:04;9.13;;;8.63;;
8584;SDS011;7180;52.742;11.420;2023-01-16T00:50:30;8.60;;;8.10;;
8584;SDS011;7180;52.742;11.420;2023-01-16T00:52:56;8.40;;;8.00;;
8584;SDS011;7180;52.742;11.420;2023-01-16T00:55:21;8.80;;;8.30;;
8584;SDS011;7180;52.742;11.420;2023-01-16T00:57:46;9.30;;;8.80;;
8584;SDS011;7180;52.742;11.420;2023-01-16T01:00:12;8.33;;;7.93;;
8584;SDS011;7180;52.742;11.420;2023-01-16T01:02:37;8.70;;;8.20;;
8584;SDS011;7180;52.742;11.420;2023-01-16T01:05:02;9.00;;;8.50;;
8584;SDS011;7180;52.742;11.420;2023-01-16T01:07:28;8.83;;;8.33;;
8584;SDS011;7180;52.742;11.420;2023-01-16T01:09:53;9.00;;;8.50;;
8584;SDS011;7180;52.742;11.420;2023-01-16T01:12:18;8.73;;;8.23;;
8584;SDS011;7180;52.742;11.420;2023-01-16T01:14:44;9.03;;;8.60;;
8584;SDS011;7180;52.742;11.420;2023-01-16T01:17:09;9.13;;;8.50;;
8584;SDS011;7180;52.742;11.420;2023-01-16T01:19:34;8.80;;;8.40;;
8584;SDS011;7180;52.742;11.420;2023-01-16T01:22:00;8.33;;;7.93;;
8584;SDS011;7180;52.742;11.420;2023-01-16T01:24:25;9.17;;;8.53;;
8584;SDS011;7180;52.742;11.420;2023-01-16T01:26:50;8.57;;;8.03;;
8584;SDS011;7180;52.742;11.420;2023-01-16T01:29:16;9.13;;;8.53;;
8584;SDS011;7180;52.742;11.420;2023-01-16T01:31:41;9.50;;;8.90;;
8584;SDS011;7180;52.742;11.420;2023-01-16T01:34:06;9.57;;;8.70;;
8584;SDS011;7180;52.742;11.420;2023-01-16T01:36:31;9.53;;;9.00;;
8584;SDS011;7180;52.742;11.420;2023-01-16T01:38:57;8.43;;;8.00;;
8584;SDS011;7180;52.742;11.420;2023-01-16T01:41:22;8.63;;;8.13;;
8584;SDS011;7180;52.742;11.420;2023-01-16T01:43:48;8.70;;;8.20;;
8584;SDS011;7180;52.742;11.420;2023-01-16T01:46:30;8.90;;;8.40;;
8584;SDS011;7180;52.742;11.420;2023-01-16T01:49:16;8.73;;;8.03;;
8584;SDS011;7180;52.742;11.420;2023-01-16T01:51:51;8.90;;;8.40;;
8584;SDS011;7180;52.742;11.420;2023-01-16T01:54:24;8.53;;;8.03;;
8584;SDS011;7180;52.742;11.420;2023-01-16T01:56:55;8.40;;;8.00;;
8584;SDS011;7180;52.742;11.420;2023-01-16T01:59:28;8.60;;;8.20;;
8584;SDS011;7180;52.742;11.420;2023-01-16T02:01:58;9.07;;;8.40;;
8584;SDS011;7180;52.742;11.420;2023-01-16T02:04:29;8.80;;;8.27;;
8584;SDS011;7180;52.742;11.420;2023-01-16T02:07:01;8.37;;;7.87;;
8584;SDS011;7180;52.742;11.420;2023-01-16T02:09:30;8.70;;;8.10;;
8584;SDS011;7180;52.742;11.420;2023-01-16T02:11:57;9.07;;;8.40;;
8584;SDS011;7180;52.742;11.420;2023-01-16T02:14:26;8.47;;;8.07;;
8584;SDS011;7180;52.742;11.420;2023-01-16T02:17:05;9.00;;;8.40;;
8584;SDS011;7180;52.742;11.420;2023-01-16T02:22:43;9.20;;;8.70;;
8584;SDS011;7180;52.742;11.420;2023-01-16T02:25:57;9.10;;;8.60;;
8584;SDS011;7180;52.742;11.420;2023-01-16T02:31:27;8.80;;;8.30;;
8584;SDS011;7180;52.742;11.420;2023-01-16T02:34:04;9.07;;;8.57;;
8584;SDS011;7180;52.742;11.420;2023-01-16T02:36:47;9.40;;;8.90;;
8584;SDS011;7180;52.742;11.420;2023-01-16T02:42:10;9.10;;;8.50;;
8584;SDS011;7180;52.742;11.420;2023-01-16T02:44:49;8.90;;;8.40;;
8584;SDS011;7180;52.742;11.420;2023-01-16T02:47:17;9.20;;;8.70;;
8584;SDS011;7180;52.742;11.420;2023-01-16T02:49:57;8.67;;;8.17;;
8584;SDS011;7180;52.742;11.420;2023-01-16T02:52:40;9.70;;;9.00;;
8584;SDS011;7180;52.742;11.420;2023-01-16T02:55:58;9.53;;;8.90;;
8584;SDS011;7180;52.742;11.420;2023-01-16T02:58:04;9.37;;;8.77;;
8584;SDS011;7180;52.742;11.420;2023-01-16T03:00:31;9.17;;;8.67;;
8584;SDS011;7180;52.742;11.420;2023-01-16T03:02:58;9.20;;;8.70;;
8584;SDS011;7180;52.742;11.420;2023-01-16T03:05:24;8.97;;;8.27;;
8584;SDS011;7180;52.742;11.420;2023-01-16T03:16:01;9.53;;;8.90;;
8584;SDS011;7180;52.742;11.420;2023-01-16T03:21:41;8.97;;;8.50;;
8584;SDS011;7180;52.742;11.420;2023-01-16T03:26:49;8.80;;;8.30;;
8584;SDS011;7180;52.742;11.420;2023-01-16T03:29:41;9.27;;;8.70;;
8584;SDS011;7180;52.742;11.420;2023-01-16T03:32:12;9.10;;;8.60;;
8584;SDS011;7180;52.742;11.420;2023-01-16T03:35:01;8.87;;;8.37;;
8584;SDS011;7180;52.742;11.420;2023-01-16T03:37:32;8.83;;;8.33;;
8584;SDS011;7180;52.742;11.420;2023-01-16T03:40:05;9.20;;;8.73;;
8584;SDS011;7180;52.742;11.420;2023-01-16T03:42:42;9.40;;;8.80;;
8584;SDS011;7180;52.742;11.420;2023-01-16T03:45:16;8.77;;;8.27;;
8584;SDS011;7180;52.742;11.420;2023-01-16T03:47:52;9.60;;;9.00;;
8584;SDS011;7180;52.742;11.420;2023-01-16T03:50:25;9.30;;;8.80;;
8584;SDS011;7180;52.742;11.420;2023-01-16T03:52:51;8.97;;;8.40;;
8584;SDS011;7180;52.742;11.420;2023-01-16T03:55:24;9.37;;;8.57;;
8584;SDS011;7180;52.742;11.420;2023-01-16T03:57:57;8.47;;;8.07;;
8584;SDS011;7180;52.742;11.420;2023-01-16T04:00:28;8.57;;;8.13;;
8584;SDS011;7180;52.742;11.420;2023-01-16T04:03:04;8.70;;;8.20;;
8584;SDS011;7180;52.742;11.420;2023-01-16T04:06:08;8.93;;;8.40;;
8584;SDS011;7180;52.742;11.420;2023-01-16T04:08:34;9.10;;;8.40;;
8584;SDS011;7180;52.742;11.420;2023-01-16T04:11:03;8.90;;;8.30;;
8584;SDS011;7180;52.742;11.420;2023-01-16T04:13:33;9.10;;;8.60;;
8584;SDS011;7180;52.742;11.420;2023-01-16T04:16:02;8.63;;;8.07;;
8584;SDS011;7180;52.742;11.420;2023-01-16T04:18:33;8.53;;;8.03;;
8584;SDS011;7180;52.742;11.420;2023-01-16T04:21:00;9.03;;;8.53;;
8584;SDS011;7180;52.742;11.420;2023-01-16T04:23:25;8.80;;;8.30;;
8584;SDS011;7180;52.742;11.420;2023-01-16T04:25:51;9.43;;;8.93;;
8584;SDS011;7180;52.742;11.420;2023-01-16T04:28:16;9.60;;;8.90;;
8584;SDS011;7180;52.742;11.420;2023-01-16T04:30:41;9.57;;;9.07;;
8584;SDS011;7180;52.742;11.420;2023-01-16T04:33:07;9.53;;;9.03;;
8584;SDS011;7180;52.742;11.420;2023-01-16T04:35:32;8.80;;;8.40;;
8584;SDS011;7180;52.742;11.420;2023-01-16T04:37:58;8.97;;;8.37;;
8584;SDS011;7180;52.742;11.420;2023-01-16T04:40:24;9.20;;;8.80;;
8584;SDS011;7180;52.742;11.420;2023-01-16T04:42:49;9.00;;;8.50;;
8584;SDS011;7180;52.742;11.420;2023-01-16T04:45:15;8.90;;;8.40;;
8584;SDS011;7180;52.742;11.420;2023-01-16T04:47:41;9.57;;;9.00;;
8584;SDS011;7180;52.742;11.420;2023-01-16T04:50:10;9.60;;;9.10;;
8584;SDS011;7180;52.742;11.420;2023-01-16T04:52:35;9.77;;;9.13;;
8584;SDS011;7180;52.742;11.420;2023-01-16T04:55:00;8.80;;;8.30;;
8584;SDS011;7180;52.742;11.420;2023-01-16T04:57:26;9.07;;;8.57;;
8584;SDS011;7180;52.742;11.420;2023-01-16T04:59:51;9.57;;;8.87;;
8584;SDS011;7180;52.742;11.420;2023-01-16T05:02:16;9.70;;;9.10;;
8584;SDS011;7180;52.742;11.420;2023-01-16T05:04:41;9.47;;;8.97;;
8584;SDS011;7180;52.742;11.420;2023-01-16T05:07:06;9.60;;;9.10;;
8584;SDS011;7180;52.742;11.420;2023-01-16T05:09:32;9.33;;;8.83;;
8584;SDS011;7180;52.742;11.420;2023-01-16T05:11:57;9.77;;;9.07;;
8584;SDS011;7180;52.742;11.420;2023-01-16T05:14:22;9.13;;;8.60;;
8584;SDS011;7180;52.742;11.420;2023-01-16T05:16:48;9.43;;;8.83;;
8584;SDS011;7180;52.742;11.420;2023-01-16T05:19:13;10.00;;;9.40;;
8584;SDS011;7180;52.742;11.420;2023-01-16T05:21:38;9.50;;;9.00;;
8584;SDS011;7180;52.742;11.420;2023-01-16T05:24:03;10.70;;;9.77;;
8584;SDS011;7180;52.742;11.420;2023-01-16T05:26:29;9.90;;;9.27;;
8584;SDS011;7180;52.742;11.420;2023-01-16T05:28:55;9.13;;;8.53;;
8584;SDS011;7180;52.742;11.420;2023-01-16T05:31:20;9.73;;;9.23;;
8584;SDS011;7180;52.742;11.420;2023-01-16T05:33:45;10.23;;;9.63;;
8584;SDS011;7180;52.742;11.420;2023-01-16T05:36:11;9.70;;;9.00;;
8584;SDS011;7180;52.742;11.420;2023-01-16T05:38:36;10.03;;;9.43;;
8584;SDS011;7180;52.742;11.420;2023-01-16T05:41:01;9.43;;;8.60;;
8584;SDS011;7180;52.742;11.420;2023-01-16T05:43:27;9.97;;;9.33;;
8584;SDS011;7180;52.742;11.420;2023-01-16T05:45:52;10.07;;;9.47;;
8584;SDS011;7180;52.742;11.420;2023-01-16T05:48:17;9.63;;;8.90;;
8584;SDS011;7180;52.742;11.420;2023-01-16T05:50:43;9.80;;;9.20;;
8584;SDS011;7180;52.742;11.420;2023-01-16T05:53:08;9.67;;;9.17;;
8584;SDS011;7180;52.742;11.420;2023-01-16T05:55:43;9.63;;;9.03;;
8584;SDS011;7180;52.742;11.420;2023-01-16T05:58:10;9.73;;;9.07;;
8584;SDS011;7180;52.742;11.420;2023-01-16T06:00:37;10.60;;;9.97;;
8584;SDS011;7180;52.742;11.420;2023-01-16T06:03:03;10.60;;;10.00;;
8584;SDS011;7180;52.742;11.420;2023-01-16T06:05:28;10.33;;;9.60;;
8584;SDS011;7180;52.742;11.420;2023-01-16T06:07:54;10.40;;;9.80;;
8584;SDS011;7180;52.742;11.420;2023-01-16T06:10:20;9.30;;;8.70;;
8584;SDS011;7180;52.742;11.420;2023-01-16T06:12:46;9.50;;;9.00;;
8584;SDS011;7180;52.742;11.420;2023-01-16T06:15:11;11.43;;;10.63;;
8584;SDS011;7180;52.742;11.420;2023-01-16T06:17:37;10.27;;;9.57;;
8584;SDS011;7180;52.742;11.420;2023-01-16T06:20:02;10.20;;;9.60;;
8584;SDS011;7180;52.742;11.420;2023-01-16T06:22:27;10.17;;;9.50;;
8584;SDS011;7180;52.742;11.420;2023-01-16T06:24:53;9.90;;;9.30;;
8584;SDS011;7180;52.742;11.420;2023-01-16T06:27:18;10.47;;;9.67;;
8584;SDS011;7180;52.742;11.420;2023-01-16T06:29:43;10.17;;;9.63;;
8584;SDS011;7180;52.742;11.420;2023-01-16T06:32:08;10.03;;;9.40;;
8584;SDS011;7180;52.742;11.420;2023-01-16T06:34:34;10.03;;;9.30;;
8584;SDS011;7180;52.742;11.420;2023-01-16T06:36:59;10.17;;;9.20;;
8584;SDS011;7180;52.742;11.420;2023-01-16T06:39:24;9.77;;;9.17;;
8584;SDS011;7180;52.742;11.420;2023-01-16T06:41:49;9.97;;;9.30;;
8584;SDS011;7180;52.742;11.420;2023-01-16T06:44:15;10.50;;;9.80;;
8584;SDS011;7180;52.742;11.420;2023-01-16T06:46:40;10.13;;;9.53;;
8584;SDS011;7180;52.742;11.420;2023-01-16T06:49:05;10.60;;;9.80;;
8584;SDS011;7180;52.742;11.420;2023-01-16T06:51:30;10.33;;;9.73;;
8584;SDS011;7180;52.742;11.420;2023-01-16T06:53:56;10.73;;;10.10;;
8584;SDS011;7180;52.742;11.420;2023-01-16T06:56:21;10.33;;;9.80;;
8584;SDS011;7180;52.742;11.420;2023-01-16T06:58:46;10.47;;;9.87;;
8584;SDS011;7180;52.742;11.420;2023-01-16T07:01:12;11.70;;;10.80;;
8584;SDS011;7180;52.742;11.420;2023-01-16T07:03:37;10.80;;;10.10;;
8584;SDS011;7180;52.742;11.420;2023-01-16T07:06:02;10.97;;;10.07;;
8584;SDS011;7180;52.742;11.420;2023-01-16T07:08:28;10.40;;;9.73;;
8584;SDS011;7180;52.742;11.420;2023-01-16T07:10:57;11.30;;;10.70;;
8584;SDS011;7180;52.742;11.420;2023-01-16T07:13:23;10.90;;;10.37;;
8584;SDS011;7180;52.742;11.420;2023-01-16T07:15:52;10.90;;;10.13;;
8584;SDS011;7180;52.742;11.420;2023-01-16T07:18:37;10.30;;;9.70;;
8584;SDS011;7180;52.742;11.420;2023-01-16T07:21:34;10.50;;;10.00;;
8584;SDS011;7180;52.742;11.420;2023-01-16T07:24:39;11.13;;;10.40;;
8584;SDS011;7180;52.742;11.420;2023-01-16T07:27:05;11.13;;;10.43;;
8584;SDS011;7180;52.742;11.420;2023-01-16T07:29:33;10.53;;;9.97;;
8584;SDS011;7180;52.742;11.420;2023-01-16T07:31:59;10.23;;;9.60;;
8584;SDS011;7180;52.742;11.420;2023-01-16T07:34:27;10.73;;;9.93;;
8584;SDS011;7180;52.742;11.420;2023-01-16T07:36:52;10.40;;;9.80;;
8584;SDS011;7180;52.742;11.420;2023-01-16T07:39:17;10.20;;;9.60;;
8584;SDS011;7180;52.742;11.420;2023-01-16T07:41:42;10.93;;;10.13;;
8584;SDS011;7180;52.742;11.420;2023-01-16T07:44:09;10.80;;;10.10;;
8584;SDS011;7180;52.742;11.420;2023-01-16T07:46:34;10.77;;;10.03;;
8584;SDS011;7180;52.742;11.420;2023-01-16T07:49:00;10.70;;;10.00;;
8584;SDS011;7180;52.742;11.420;2023-01-16T07:51:25;10.33;;;9.63;;
8584;SDS011;7180;52.742;11.420;2023-01-16T07:53:51;10.00;;;9.47;;
8584;SDS011;7180;52.742;11.420;2023-01-16T07:56:16;10.87;;;10.07;;
8584;SDS011;7180;52.742;11.420;2023-01-16T07:58:41;10.30;;;9.70;;
8584;SDS011;7180;52.742;11.420;2023-01-16T08:01:08;10.23;;;9.63;;
8584;SDS011;7180;52.742;11.420;2023-01-16T08:03:34;10.40;;;9.70;;
8584;SDS011;7180;52.742;11.420;2023-01-16T08:05:59;10.03;;;9.43;;
8584;SDS011;7180;52.742;11.420;2023-01-16T08:08:27;10.50;;;9.93;;
8584;SDS011;7180;52.742;11.420;2023-01-16T08:10:57;10.70;;;9.90;;
8584;SDS011;7180;52.742;11.420;2023-01-16T08:13:24;10.13;;;9.50;;
8584;SDS011;7180;52.742;11.420;2023-01-16T08:15:50;10.37;;;9.60;;
8584;SDS011;7180;52.742;11.420;2023-01-16T08:18:15;10.40;;;9.70;;
8584;SDS011;7180;52.742;11.420;2023-01-16T08:20:42;10.10;;;9.50;;
8584;SDS011;7180;52.742;11.420;2023-01-16T08:23:09;10.30;;;9.63;;
8584;SDS011;7180;52.742;11.420;2023-01-16T08:25:35;9.93;;;9.30;;
8584;SDS011;7180;52.742;11.420;2023-01-16T08:28:00;9.93;;;9.13;;
8584;SDS011;7180;52.742;11.420;2023-01-16T08:30:26;13.90;;;12.73;;
8584;SDS011;7180;52.742;11.420;2023-01-16T08:32:56;11.67;;;10.87;;
8584;SDS011;7180;52.742;11.420;2023-01-16T08:35:25;11.93;;;11.10;;
8584;SDS011;7180;52.742;11.420;2023-01-16T08:37:51;11.50;;;10.50;;
8584;SDS011;7180;52.742;11.420;2023-01-16T08:40:16;10.37;;;9.77;;
8584;SDS011;7180;52.742;11.420;2023-01-16T08:42:42;10.70;;;10.10;;
8584;SDS011;7180;52.742;11.420;2023-01-16T08:45:26;11.23;;;10.53;;
8584;SDS011;7180;52.742;11.420;2023-01-16T08:48:10;10.50;;;9.80;;
8584;SDS011;7180;52.742;11.420;2023-01-16T08:50:54;10.60;;;10.00;;
8584;SDS011;7180;52.742;11.420;2023-01-16T08:53:40;10.83;;;10.13;;
8584;SDS011;7180;52.742;11.420;2023-01-16T08:56:05;10.40;;;9.60;;
8584;SDS011;7180;52.742;11.420;2023-01-16T08:58:31;10.00;;;9.40;;
8584;SDS011;7180;52.742;11.420;2023-01-16T09:00:56;9.87;;;9.27;;
8584;SDS011;7180;52.742;11.420;2023-01-16T09:03:22;12.17;;;11.17;;
8584;SDS011;7180;52.742;11.420;2023-01-16T09:05:47;11.27;;;10.40;;
8584;SDS011;7180;52.742;11.420;2023-01-16T09:08:12;10.90;;;10.10;;
8584;SDS011;7180;52.742;11.420;2023-01-16T09:10:37;10.87;;;9.93;;
8584;SDS011;7180;52.742;11.420;2023-01-16T09:13:03;10.00;;;9.40;;
8584;SDS011;7180;52.742;11.420;2023-01-16T09:15:47;9.93;;;9.40;;
8584;SDS011;7180;52.742;11.420;2023-01-16T09:18:13;9.80;;;9.30;;
8584;SDS011;7180;52.742;11.420;2023-01-16T09:20:38;9.37;;;8.97;;
8584;SDS011;7180;52.742;11.420;2023-01-16T09:23:04;10.17;;;9.57;;
8584;SDS011;7180;52.742;11.420;2023-01-16T09:25:29;10.00;;;9.40;;
8584;SDS011;7180;52.742;11.420;2023-01-16T09:27:55;10.03;;;9.30;;
8584;SDS011;7180;52.742;11.420;2023-01-16T09:30:21;10.10;;;9.50;;
8584;SDS011;7180;52.742;11.420;2023-01-16T09:32:46;11.10;;;10.20;;
8584;SDS011;7180;52.742;11.420;2023-01-16T09:35:12;10.33;;;9.73;;
8584;SDS011;7180;52.742;11.420;2023-01-16T09:37:38;11.70;;;10.70;;
8584;SDS011;7180;52.742;11.420;2023-01-16T09:40:06;9.70;;;9.10;;
8584;SDS011;7180;52.742;11.420;2023-01-16T09:42:38;9.80;;;9.10;;
8584;SDS011;7180;52.742;11.420;2023-01-16T09:45:32;10.47;;;9.87;;
8584;SDS011;7180;52.742;11.420;2023-01-16T09:48:00;9.40;;;8.70;;
8584;SDS011;7180;52.742;11.420;2023-01-16T09:53:01;9.83;;;9.23;;
8584;SDS011;7180;52.742;11.420;2023-01-16T09:55:49;9.27;;;8.60;;
8584;SDS011;7180;52.742;11.420;2023-01-16T09:58:36;14.30;;;12.90;;
8584;SDS011;7180;52.742;11.420;2023-01-16T10:01:06;12.30;;;11.37;;
8584;SDS011;7180;52.742;11.420;2023-01-16T10:03:36;10.27;;;9.57;;
8584;SDS011;7180;52.742;11.420;2023-01-16T10:06:12;10.90;;;10.10;;
8584;SDS011;7180;52.742;11.420;2023-01-16T10:08:52;13.00;;;12.00;;
8584;SDS011;7180;52.742;11.420;2023-01-16T10:11:47;11.57;;;10.60;;
8584;SDS011;7180;52.742;11.420;2023-01-16T10:14:21;10.80;;;10.10;;
8584;SDS011;7180;52.742;11.420;2023-01-16T10:25:43;10.47;;;9.83;;
8584;SDS011;7180;52.742;11.420;2023-01-16T10:28:25;13.43;;;12.33;;
8584;SDS011;7180;52.742;11.420;2023-01-16T10:31:00;17.50;;;15.80;;
8584;SDS011;7180;52.742;11.420;2023-01-16T10:33:44;24.13;;;21.67;;
8584;SDS011;7180;52.742;11.420;2023-01-16T10:36:15;21.87;;;19.77;;
8584;SDS011;7180;52.742;11.420;2023-01-16T10:38:44;16.27;;;14.70;;
8584;SDS011;7180;52.742;11.420;2023-01-16T10:41:16;11.77;;;10.63;;
8584;SDS011;7180;52.742;11.420;2023-01-16T10:44:12;9.40;;;8.80;;
8584;SDS011;7180;52.742;11.420;2023-01-16T10:47:11;9.53;;;9.03;;
8584;SDS011;7180;52.742;11.420;2023-01-16T10:49:56;9.10;;;8.70;;
8584;SDS011;7180;52.742;11.420;2023-01-16T10:52:22;8.63;;;8.03;;
8584;SDS011;7180;52.742;11.420;2023-01-16T10:54:49;8.50;;;7.90;;
8584;SDS011;7180;52.742;11.420;2023-01-16T10:57:16;8.63;;;8.10;;
8584;SDS011;7180;52.742;11.420;2023-01-16T10:59:43;8.63;;;8.10;;
8584;SDS011;7180;52.742;11.420;2023-01-16T11:02:18;8.80;;;8.20;;
8584;SDS011;7180;52.742;11.420;2023-01-16T11:04:48;8.73;;;8.23;;
8584;SDS011;7180;52.742;11.420;2023-01-16T11:07:15;9.00;;;8.40;;
8584;SDS011;7180;52.742;11.420;2023-01-16T11:09:45;9.80;;;9.20;;
8584;SDS011;7180;52.742;11.420;2023-01-16T11:12:11;8.90;;;8.30;;
8584;SDS011;7180;52.742;11.420;2023-01-16T11:15:09;9.30;;;8.70;;
8584;SDS011;7180;52.742;11.420;2023-01-16T11:17:59;11.50;;;10.40;;
8584;SDS011;7180;52.742;11.420;2023-01-16T11:20:43;10.63;;;9.90;;
8584;SDS011;7180;52.742;11.420;2023-01-16T11:25:50;16.47;;;15.17;;
8584;SDS011;7180;52.742;11.420;2023-01-16T11:28:22;11.17;;;10.20;;
8584;SDS011;7180;52.742;11.420;2023-01-16T11:30:51;9.00;;;8.40;;
8584;SDS011;7180;52.742;11.420;2023-01-16T11:33:24;8.97;;;8.30;;
8584;SDS011;7180;52.742;11.420;2023-01-16T11:35:54;8.57;;;8.07;;
8584;SDS011;7180;52.742;11.420;2023-01-16T11:38:23;9.20;;;8.60;;
8584;SDS011;7180;52.742;11.420;2023-01-16T11:40:50;8.03;;;7.43;;
8584;SDS011;7180;52.742;11.420;2023-01-16T11:43:18;8.40;;;8.00;;
8584;SDS011;7180;52.742;11.420;2023-01-16T11:46:07;8.60;;;8.13;;
8584;SDS011;7180;52.742;11.420;2023-01-16T11:48:52;11.80;;;10.70;;
8584;SDS011;7180;52.742;11.420;2023-01-16T11:51:44;15.30;;;13.10;;
8584;SDS011;7180;52.742;11.420;2023-01-16T11:54:15;15.37;;;13.00;;
8584;SDS011;7180;52.742;11.420;2023-01-16T11:57:18;13.97;;;11.43;;
8584;SDS011;7180;52.742;11.420;2023-01-16T12:02:49;12.83;;;11.57;;
8584;SDS011;7180;52.742;11.420;2023-01-16T12:08:31;8.07;;;7.67;;
8584;SDS011;7180;52.742;11.420;2023-01-16T12:11:21;8.40;;;7.90;;
8584;SDS011;7180;52.742;11.420;2023-01-16T12:14:06;8.30;;;7.60;;
8584;SDS011;7180;52.742;11.420;2023-01-16T12:22:19;9.27;;;8.60;;
8584;SDS011;7180;52.742;11.420;2023-01-16T12:25:15;9.43;;;8.83;;
8584;SDS011;7180;52.742;11.420;2023-01-16T12:27:44;8.80;;;8.20;;
8584;SDS011;7180;52.742;11.420;2023-01-16T12:41:34;8.67;;;8.17;;
8584;SDS011;7180;52.742;11.420;2023-01-16T12:50:16;10.90;;;10.10;;
8584;SDS011;7180;52.742;11.420;2023-01-16T12:53:01;12.73;;;11.73;;
8584;SDS011;7180;52.742;11.420;2023-01-16T12:55:33;14.17;;;12.80;;
8584;SDS011;7180;52.742;11.420;2023-01-16T12:58:13;9.70;;;8.90;;
8584;SDS011;7180;52.742;11.420;2023-01-16T13:00:56;8.17;;;7.77;;
8584;SDS011;7180;52.742;11.420;2023-01-16T13:03:32;9.23;;;8.53;;
8584;SDS011;7180;52.742;11.420;2023-01-16T13:06:04;9.00;;;8.40;;
8584;SDS011;7180;52.742;11.420;2023-01-16T13:08:38;8.37;;;7.87;;
8584;SDS011;7180;52.742;11.420;2023-01-16T13:11:15;8.83;;;8.33;;
8584;SDS011;7180;52.742;11.420;2023-01-16T13:14:06;9.70;;;9.10;;
8584;SDS011;7180;52.742;11.420;2023-01-16T13:19:29;14.37;;;12.47;;
8584;SDS011;7180;52.742;11.420;2023-01-16T13:22:19;24.87;;;19.50;;
8584;SDS011;7180;52.742;11.420;2023-01-16T13:24:46;21.40;;;17.33;;
8584;SDS011;7180;52.742;11.420;2023-01-16T13:27:19;20.10;;;18.07;;
8584;SDS011;7180;52.742;11.420;2023-01-16T13:29:56;26.50;;;21.33;;
8584;SDS011;7180;52.742;11.420;2023-01-16T13:32:34;27.27;;;18.47;;
8584;SDS011;7180;52.742;11.420;2023-01-16T13:41:10;13.27;;;12.17;;
8584;SDS011;7180;52.742;11.420;2023-01-16T13:44:07;11.87;;;10.97;;
8584;SDS011;7180;52.742;11.420;2023-01-16T13:47:06;10.03;;;9.43;;
8584;SDS011;7180;52.742;11.420;2023-01-16T13:49:35;10.47;;;9.70;;
8584;SDS011;7180;52.742;11.420;2023-01-16T13:52:02;9.43;;;8.90;;
8584;SDS011;7180;52.742;11.420;2023-01-16T13:54:35;10.00;;;9.30;;
8584;SDS011;7180;52.742;11.420;2023-01-16T13:57:07;9.57;;;8.80;;
8584;SDS011;7180;52.742;11.420;2023-01-16T13:59:40;9.20;;;8.50;;
8584;SDS011;7180;52.742;11.420;2023-01-16T14:10:38;9.07;;;8.57;;
8584;SDS011;7180;52.742;11.420;2023-01-16T14:15:43;14.33;;;13.17;;
8584;SDS011;7180;52.742;11.420;2023-01-16T14:18:39;10.23;;;9.53;;
8584;SDS011;7180;52.742;11.420;2023-01-16T14:21:18;11.77;;;10.97;;
8584;SDS011;7180;52.742;11.420;2023-01-16T14:24:02;11.60;;;10.70;;
8584;SDS011;7180;52.742;11.420;2023-01-16T14:26:39;10.03;;;9.33;;
8584;SDS011;7180;52.742;11.420;2023-01-16T14:29:43;11.20;;;10.27;;
8584;SDS011;7180;52.742;11.420;2023-01-16T14:34:40;10.63;;;9.93;;
8584;SDS011;7180;52.742;11.420;2023-01-16T14:37:16;15.80;;;14.60;;
8584;SDS011;7180;52.742;11.420;2023-01-16T14:39:57;12.70;;;11.70;;
8584;SDS011;7180;52.742;11.420;2023-01-16T14:50:53;10.40;;;9.60;;
8584;SDS011;7180;52.742;11.420;2023-01-16T14:53:41;9.50;;;8.80;;
8584;SDS011;7180;52.742;11.420;2023-01-16T14:56:26;12.30;;;11.27;;
8584;SDS011;7180;52.742;11.420;2023-01-16T15:01:27;10.00;;;9.30;;
8584;SDS011;7180;52.742;11.420;2023-01-16T15:04:15;10.23;;;9.60;;
8584;SDS011;7180;52.742;11.420;2023-01-16T15:06:48;10.83;;;10.13;;
8584;SDS011;7180;52.742;11.420;2023-01-16T15:09:20;10.30;;;9.63;;
8584;SDS011;7180;52.742;11.420;2023-01-16T15:14:23;10.53;;;9.90;;
8584;SDS011;7180;52.742;11.420;2023-01-16T15:17:01;10.40;;;9.80;;
8584;SDS011;7180;52.742;11.420;2023-01-16T15:19:57;10.60;;;9.97;;
8584;SDS011;7180;52.742;11.420;2023-01-16T15:22:50;10.53;;;9.80;;
8584;SDS011;7180;52.742;11.420;2023-01-16T15:25:20;11.77;;;10.97;;
8584;SDS011;7180;52.742;11.420;2023-01-16T15:28:02;10.63;;;9.87;;
8584;SDS011;7180;52.742;11.420;2023-01-16T15:30:35;10.27;;;9.57;;
8584;SDS011;7180;52.742;11.420;2023-01-16T15:33:02;11.50;;;10.67;;
8584;SDS011;7180;52.742;11.420;2023-01-16T15:35:56;9.83;;;9.33;;
8584;SDS011;7180;52.742;11.420;2023-01-16T15:38:23;12.13;;;11.23;;
8584;SDS011;7180;52.742;11.420;2023-01-16T15:40:50;10.90;;;10.10;;
8584;SDS011;7180;52.742;11.420;2023-01-16T15:43:17;9.70;;;9.00;;
8584;SDS011;7180;52.742;11.420;2023-01-16T15:46:03;9.70;;;9.07;;
8584;SDS011;7180;52.742;11.420;2023-01-16T15:49:10;9.67;;;9.07;;
8584;SDS011;7180;52.742;11.420;2023-01-16T15:51:51;10.37;;;9.73;;
8584;SDS011;7180;52.742;11.420;2023-01-16T15:54:17;10.80;;;10.20;;
8584;SDS011;7180;52.742;11.420;2023-01-16T15:56:43;10.60;;;9.90;;
8584;SDS011;7180;52.742;11.420;2023-01-16T16:04:57;9.40;;;8.73;;
8584;SDS011;7180;52.742;11.420;2023-01-16T16:07:24;9.20;;;8.70;;
8584;SDS011;7180;52.742;11.420;2023-01-16T16:09:54;9.67;;;9.00;;
8584;SDS011;7180;52.742;11.420;2023-01-16T16:12:24;8.60;;;8.13;;
8584;SDS011;7180;52.742;11.420;2023-01-16T16:14:50;8.53;;;8.03;;
8584;SDS011;7180;52.742;11.420;2023-01-16T16:18:01;8.87;;;8.30;;
8584;SDS011;7180;52.742;11.420;2023-01-16T16:20:39;8.50;;;8.10;;
8584;SDS011;7180;52.742;11.420;2023-01-16T16:31:02;9.80;;;9.10;;
8584;SDS011;7180;52.742;11.420;2023-01-16T16:33:31;9.53;;;9.03;;
8584;SDS011;7180;52.742;11.420;2023-01-16T16:35:58;9.50;;;8.90;;
8584;SDS011;7180;52.742;11.420;2023-01-16T16:38:25;10.90;;;10.10;;
8584;SDS011;7180;52.742;11.420;2023-01-16T16:43:50;9.20;;;8.60;;
8584;SDS011;7180;52.742;11.420;2023-01-16T16:48:47;9.23;;;8.73;;
8584;SDS011;7180;52.742;11.420;2023-01-16T16:51:26;9.17;;;8.67;;
8584;SDS011;7180;52.742;11.420;2023-01-16T16:53:56;9.43;;;8.83;;
8584;SDS011;7180;52.742;11.420;2023-01-16T16:56:24;9.70;;;9.17;;
8584;SDS011;7180;52.742;11.420;2023-01-16T16:58:51;9.20;;;8.67;;
8584;SDS011;7180;52.742;11.420;2023-01-16T17:01:17;8.77;;;8.27;;
8584;SDS011;7180;52.742;11.420;2023-01-16T17:03:45;10.57;;;9.23;;
8584;SDS011;7180;52.742;11.420;2023-01-16T17:06:14;9.30;;;8.73;;
8584;SDS011;7180;52.742;11.420;2023-01-16T17:08:41;9.40;;;8.90;;
8584;SDS011;7180;52.742;11.420;2023-01-16T17:11:09;9.10;;;8.60;;
8584;SDS011;7180;52.742;11.420;2023-01-16T17:13:36;9.27;;;8.77;;
8584;SDS011;7180;52.742;11.420;2023-01-16T17:16:01;9.47;;;8.97;;
8584;SDS011;7180;52.742;11.420;2023-01-16T17:18:26;9.10;;;8.60;;
8584;SDS011;7180;52.742;11.420;2023-01-16T17:20:52;9.30;;;8.80;;